createdAt,value
2022-09-10T00:01:02.852Z,9.50
2022-09-10T00:03:50.068Z,10.25
2022-09-10T00:06:38.659Z,12.13
2022-09-10T00:09:24.955Z,11.95
2022-09-10T00:12:11.262Z,10.80
2022-09-10T00:14:57.876Z,15.65
2022-09-10T00:17:44.201Z,10.35
2022-09-10T00:20:30.520Z,10.02
2022-09-10T00:23:19.126Z,9.10
2022-09-10T00:26:19.994Z,12.07
2022-09-10T00:29:08.727Z,11.32
2022-09-10T00:31:55.180Z,14.38
2022-09-10T00:34:40.825Z,8.88
2022-09-10T00:37:27.283Z,8.18
2022-09-10T00:40:14.910Z,10.43
2022-09-10T00:43:01.771Z,7.70
2022-09-10T00:45:51.394Z,7.65
2022-09-10T00:48:37.805Z,7.85
2022-09-10T00:51:26.364Z,12.37
2022-09-10T00:54:14.756Z,9.32
2022-09-10T00:57:05.489Z,6.60
2022-09-10T00:59:56.826Z,7.62
2022-09-10T01:02:43.514Z,7.15
2022-09-10T01:05:30.950Z,9.65
2022-09-10T01:08:18.871Z,7.07
2022-09-10T01:11:11.256Z,8.13
2022-09-10T01:14:32.341Z,10.68
2022-09-10T01:17:29.791Z,8.30
2022-09-10T01:20:26.585Z,6.65
2022-09-10T01:23:41.617Z,6.85
2022-09-10T01:26:44.174Z,5.85
2022-09-10T01:29:40.679Z,4.87
2022-09-10T01:32:31.195Z,7.05
2022-09-10T01:35:20.259Z,5.97
2022-09-10T01:38:13.709Z,8.70
2022-09-10T01:41:00.771Z,6.05
2022-09-10T01:43:47.370Z,9.35
2022-09-10T01:46:34.905Z,5.53
2022-09-10T01:49:36.801Z,9.02
2022-09-10T01:52:45.984Z,7.28
2022-09-10T01:55:56.395Z,6.78
2022-09-10T01:58:44.437Z,5.95
2022-09-10T02:01:49.105Z,8.45
2022-09-10T02:04:35.984Z,6.68
2022-09-10T02:07:24.637Z,11.00
2022-09-10T02:10:11.367Z,5.97
2022-09-10T02:12:59.199Z,6.85
2022-09-10T02:15:45.483Z,7.32
2022-09-10T02:18:32.988Z,7.90
2022-09-10T02:21:19.552Z,7.18
2022-09-10T02:24:08.421Z,8.23
2022-09-10T02:26:54.778Z,5.78
2022-09-10T02:29:41.149Z,6.22
2022-09-10T02:32:29.109Z,5.12
2022-09-10T02:35:15.657Z,4.30
2022-09-10T02:38:05.862Z,5.15
2022-09-10T02:40:52.097Z,5.95
2022-09-10T02:43:38.282Z,5.82
2022-09-10T02:46:24.842Z,7.32
2022-09-10T02:49:11.939Z,4.03
2022-09-10T02:51:58.242Z,8.00
2022-09-10T02:54:44.735Z,5.57
2022-09-10T02:57:31.014Z,5.10
2022-09-10T03:00:17.586Z,3.40
2022-09-10T03:03:04.101Z,3.30
2022-09-10T03:05:50.050Z,6.53
2022-09-10T03:08:36.727Z,4.78
2022-09-10T03:11:24.013Z,3.45
2022-09-10T03:14:12.190Z,5.22
2022-09-10T03:16:58.359Z,3.47
2022-09-10T03:19:44.673Z,6.85
2022-09-10T03:22:32.139Z,5.68
2022-09-10T03:25:19.367Z,5.22
2022-09-10T03:28:05.387Z,4.80
2022-09-10T03:30:51.875Z,3.03
2022-09-10T03:33:38.812Z,4.47
2022-09-10T03:36:28.254Z,4.55
2022-09-10T03:39:16.260Z,2.60
2022-09-10T03:42:05.219Z,2.58
2022-09-10T03:44:52.203Z,3.12
2022-09-10T03:47:39.473Z,3.45
2022-09-10T03:50:26.395Z,3.08
2022-09-10T03:53:15.213Z,3.30
2022-09-10T03:56:01.569Z,2.55
2022-09-10T03:58:49.281Z,3.03
2022-09-10T04:01:35.434Z,2.95
2022-09-10T04:04:23.297Z,2.15
2022-09-10T04:07:11.317Z,1.70
2022-09-10T04:09:57.543Z,2.12
2022-09-10T04:12:43.591Z,4.05
2022-09-10T04:15:29.954Z,1.60
2022-09-10T04:18:16.293Z,1.85
2022-09-10T04:21:04.658Z,4.43
2022-09-10T04:23:55.683Z,3.62
2022-09-10T04:26:41.965Z,1.67
2022-09-10T04:29:28.614Z,1.40
2022-09-10T04:32:15.160Z,2.67
2022-09-10T04:35:02.480Z,2.85
2022-09-10T04:37:49.149Z,2.08
2022-09-10T04:40:35.872Z,1.80
2022-09-10T04:43:25.616Z,2.12
2022-09-10T04:46:12.017Z,5.95
2022-09-10T04:49:00.274Z,2.35
2022-09-10T04:51:47.115Z,1.90
2022-09-10T04:54:34.008Z,4.37
2022-09-10T04:57:20.200Z,1.73
2022-09-10T05:00:08.072Z,2.00
2022-09-10T05:02:56.170Z,2.45
2022-09-10T05:05:47.127Z,1.30
2022-09-10T05:08:33.427Z,1.85
2022-09-10T05:11:19.783Z,4.20
2022-09-10T05:14:07.387Z,0.90
2022-09-10T05:16:53.779Z,2.00
2022-09-10T05:19:40.035Z,3.78
2022-09-10T05:22:33.704Z,2.75
2022-09-10T05:25:22.890Z,4.07
2022-09-10T05:28:09.578Z,2.22
2022-09-10T05:30:55.724Z,1.25
2022-09-10T05:33:43.073Z,1.62
2022-09-10T05:36:32.099Z,2.95
2022-09-10T05:39:18.699Z,3.15
2022-09-10T05:42:05.790Z,3.50
2022-09-10T05:44:53.164Z,2.22
2022-09-10T05:47:39.245Z,1.08
2022-09-10T05:50:25.844Z,2.12
2022-09-10T05:53:12.712Z,4.65
2022-09-10T05:55:59.711Z,2.20
2022-09-10T05:58:46.098Z,1.45
2022-09-10T06:01:33.379Z,2.50
2022-09-10T06:04:20.997Z,2.87
2022-09-10T06:07:08.596Z,2.62
2022-09-10T06:09:55.811Z,3.03
2022-09-10T06:12:47.330Z,4.18
2022-09-10T06:15:35.411Z,1.55
2022-09-10T06:18:21.445Z,4.00
2022-09-10T06:21:28.427Z,1.58
2022-09-10T06:24:15.552Z,3.47
2022-09-10T06:27:02.473Z,1.67
2022-09-10T06:29:49.122Z,3.37
2022-09-10T06:32:35.773Z,2.87
2022-09-10T06:35:22.212Z,1.30
2022-09-10T06:38:08.990Z,1.75
2022-09-10T06:41:00.487Z,2.85
2022-09-10T06:43:48.151Z,2.10
2022-09-10T06:47:16.037Z,2.35
2022-09-10T06:49:41.836Z,2.05
2022-09-10T06:52:29.517Z,1.10
2022-09-10T06:55:18.326Z,0.68
2022-09-10T06:58:04.639Z,2.25
2022-09-10T07:00:51.637Z,1.85
2022-09-10T07:03:38.115Z,2.28
2022-09-10T07:06:25.908Z,4.47
2022-09-10T07:09:12.860Z,1.70
2022-09-10T07:12:00.201Z,4.35
2022-09-10T07:14:47.402Z,1.67
2022-09-10T07:17:35.886Z,4.97
2022-09-10T07:20:27.191Z,3.40
2022-09-10T07:23:14.520Z,2.42
2022-09-10T07:26:08.439Z,4.15
2022-09-10T07:28:55.012Z,3.72
2022-09-10T07:31:41.740Z,2.95
2022-09-10T07:34:30.153Z,2.37
2022-09-10T07:37:16.421Z,4.40
2022-09-10T07:40:04.379Z,4.28
2022-09-10T07:42:52.421Z,8.48
2022-09-10T07:45:40.305Z,3.90
2022-09-10T07:48:28.435Z,5.37
2022-09-10T07:51:19.237Z,2.97
2022-09-10T07:54:05.723Z,4.37
2022-09-10T07:56:52.686Z,3.60
2022-09-10T07:59:38.899Z,2.87
2022-09-10T08:02:27.152Z,3.15
2022-09-10T08:05:14.368Z,3.47
2022-09-10T08:08:00.840Z,3.17
2022-09-10T08:10:48.788Z,3.08
2022-09-10T08:13:36.770Z,2.95
2022-09-10T08:16:24.761Z,2.70
2022-09-10T08:19:10.933Z,3.12
2022-09-10T08:21:59.465Z,3.15
2022-09-10T08:24:47.848Z,2.60
2022-09-10T08:27:35.257Z,2.17
2022-09-10T08:30:21.480Z,3.87
2022-09-10T08:33:07.976Z,2.20
2022-09-10T08:35:57.139Z,3.03
2022-09-10T08:38:44.234Z,3.08
2022-09-10T08:41:46.932Z,2.97
2022-09-10T08:44:40.726Z,3.97
2022-09-10T08:47:53.357Z,2.47
2022-09-10T08:50:59.202Z,2.03
2022-09-10T08:53:51.445Z,1.27
2022-09-10T08:56:40.460Z,2.50
2022-09-10T08:59:33.391Z,2.05
2022-09-10T09:02:59.413Z,1.85
2022-09-10T09:05:48.694Z,1.12
2022-09-10T09:08:41.779Z,0.82
2022-09-10T09:11:53.186Z,1.90
2022-09-10T09:15:12.439Z,2.17
2022-09-10T09:18:10.923Z,1.33
2022-09-10T09:21:01.116Z,0.90
2022-09-10T09:24:13.576Z,0.85
2022-09-10T09:27:09.935Z,1.45
2022-09-10T09:30:01.726Z,0.80
2022-09-10T09:32:49.664Z,0.65
2022-09-10T09:35:46.817Z,1.05
2022-09-10T09:38:42.582Z,0.98
2022-09-10T09:41:52.263Z,1.00
2022-09-10T09:44:46.071Z,1.45
2022-09-10T09:47:32.446Z,0.98
2022-09-10T09:50:19.329Z,2.40
2022-09-10T09:53:05.611Z,1.92
2022-09-10T09:55:57.111Z,0.90
2022-09-10T10:01:34.128Z,1.23
2022-09-10T10:04:25.736Z,1.52
2022-09-10T10:07:12.000Z,0.40
2022-09-10T10:10:01.129Z,2.33
2022-09-10T10:12:49.719Z,0.47
2022-09-10T10:15:42.495Z,1.20
2022-09-10T10:18:34.517Z,1.05
2022-09-10T10:21:34.820Z,3.17
2022-09-10T10:24:32.974Z,0.50
2022-09-10T10:27:35.767Z,1.85
2022-09-10T10:30:23.678Z,0.65
2022-09-10T10:33:19.242Z,1.42
2022-09-10T10:36:22.303Z,2.45
2022-09-10T10:39:26.706Z,1.55
2022-09-10T10:42:21.106Z,0.77
2022-09-10T10:45:26.179Z,0.98
2022-09-10T10:48:15.827Z,1.42
2022-09-10T10:51:09.461Z,1.40
2022-09-10T10:54:14.211Z,1.70
2022-09-10T10:57:31.159Z,0.93
2022-09-10T11:00:20.194Z,1.10
2022-09-10T11:03:11.282Z,0.47
2022-09-10T11:06:03.270Z,0.73
2022-09-10T11:09:03.025Z,2.67
2022-09-10T11:11:59.186Z,0.85
2022-09-10T11:14:56.580Z,2.83
2022-09-10T11:17:48.907Z,0.65
2022-09-10T11:20:44.542Z,1.52
2022-09-10T11:23:38.091Z,1.52
2022-09-10T11:26:27.055Z,1.17
2022-09-10T11:29:40.406Z,0.80
2022-09-10T11:32:39.304Z,2.17
2022-09-10T11:35:29.843Z,1.85
2022-09-10T11:38:23.294Z,1.62
2022-09-10T11:41:25.163Z,2.10
2022-09-10T11:44:44.453Z,0.85
2022-09-10T11:47:42.910Z,2.50
2022-09-10T11:50:53.426Z,2.05
2022-09-10T11:53:40.266Z,0.60
2022-09-10T11:56:42.018Z,0.88
2022-09-10T12:02:45.544Z,1.08
2022-09-10T12:05:35.715Z,0.82
2022-09-10T12:08:29.492Z,3.15
2022-09-10T12:11:28.330Z,0.43
2022-09-10T12:14:19.618Z,1.80
2022-09-10T12:17:24.542Z,2.12
2022-09-10T12:20:19.814Z,1.20
2022-09-10T12:23:18.674Z,1.15
2022-09-10T12:26:17.282Z,1.08
2022-09-10T12:29:04.472Z,1.17
2022-09-10T12:32:09.674Z,4.12
2022-09-10T12:35:30.442Z,1.08
2022-09-10T12:38:44.538Z,2.53
2022-09-10T12:41:31.242Z,1.73
2022-09-10T12:44:28.402Z,1.42
2022-09-10T12:47:14.951Z,3.15
2022-09-10T12:50:04.641Z,3.83
2022-09-10T12:52:53.667Z,2.12
2022-09-10T12:55:41.839Z,0.93
2022-09-10T12:58:47.565Z,2.35
2022-09-10T13:01:47.798Z,1.20
2022-09-10T13:04:36.088Z,3.30
2022-09-10T13:07:25.474Z,0.70
2022-09-10T13:10:22.103Z,2.85
2022-09-10T13:13:30.725Z,3.10
2022-09-10T13:16:18.065Z,1.25
2022-09-10T13:19:13.399Z,1.23
2022-09-10T13:21:59.913Z,1.15
2022-09-10T13:25:24.261Z,1.75
2022-09-10T13:28:39.482Z,3.12
2022-09-10T13:31:32.427Z,1.90
2022-09-10T13:34:53.141Z,2.62
2022-09-10T13:38:06.812Z,4.15
2022-09-10T13:41:21.048Z,1.90
2022-09-10T13:44:39.587Z,1.08
2022-09-10T13:47:34.287Z,2.00
2022-09-10T13:50:25.436Z,3.78
2022-09-10T13:53:13.673Z,0.47
2022-09-10T13:56:14.365Z,2.42
2022-09-10T13:59:02.279Z,0.60
2022-09-10T14:01:55.511Z,2.67
2022-09-10T14:04:44.955Z,1.15
2022-09-10T14:07:32.773Z,3.33
2022-09-10T14:10:19.183Z,1.25
2022-09-10T14:13:05.784Z,3.25
2022-09-10T14:15:54.330Z,2.90
2022-09-10T14:18:52.395Z,1.65
2022-09-10T14:21:38.717Z,3.75
2022-09-10T14:24:31.278Z,0.90
2022-09-10T14:27:35.746Z,2.67
2022-09-10T14:30:32.975Z,1.12
2022-09-10T14:33:26.954Z,2.97
2022-09-10T14:36:28.621Z,2.62
2022-09-10T14:39:15.831Z,3.00
2022-09-10T14:42:27.620Z,1.37
2022-09-10T14:45:43.528Z,1.30
2022-09-10T14:48:35.632Z,2.55
2022-09-10T14:51:22.750Z,1.27
2022-09-10T14:54:11.788Z,2.10
2022-09-10T14:57:03.761Z,1.15
2022-09-10T14:59:53.088Z,1.65
2022-09-10T15:02:42.017Z,1.85
2022-09-10T15:05:28.921Z,2.67
2022-09-10T15:08:15.408Z,3.20
2022-09-10T15:11:02.121Z,4.00
2022-09-10T15:13:49.486Z,0.88
2022-09-10T15:16:36.868Z,2.53
2022-09-10T15:19:23.151Z,1.92
2022-09-10T15:22:23.430Z,3.17
2022-09-10T15:25:37.452Z,1.52
2022-09-10T15:28:24.465Z,0.60
2022-09-10T15:31:11.068Z,2.05
2022-09-10T15:33:58.759Z,1.52
2022-09-10T15:36:48.771Z,2.58
2022-09-10T15:39:38.138Z,4.28
2022-09-10T15:42:24.357Z,1.85
2022-09-10T15:45:10.984Z,1.05
2022-09-10T15:47:57.618Z,1.20
2022-09-10T15:50:44.901Z,3.20
2022-09-10T15:53:33.622Z,1.40
2022-09-10T15:56:20.931Z,0.90
2022-09-10T15:59:08.642Z,0.75
2022-09-10T16:01:54.900Z,5.70
2022-09-10T16:04:43.082Z,1.15
2022-09-10T16:07:29.560Z,3.35
2022-09-10T16:10:16.817Z,0.47
2022-09-10T16:13:03.165Z,1.87
2022-09-10T16:16:03.715Z,0.90
2022-09-10T16:18:53.335Z,1.42
2022-09-10T16:21:39.835Z,2.35
2022-09-10T16:24:26.182Z,2.80
2022-09-10T16:27:12.533Z,1.23
2022-09-10T16:29:58.073Z,1.50
2022-09-10T16:32:44.424Z,1.55
2022-09-10T16:35:30.521Z,2.78
2022-09-10T16:38:17.003Z,2.10
2022-09-10T16:41:04.208Z,0.93
2022-09-10T16:43:51.131Z,1.98
2022-09-10T16:46:38.503Z,2.03
2022-09-10T16:49:25.294Z,2.47
2022-09-10T16:52:12.160Z,1.37
2022-09-10T16:54:58.744Z,1.25
2022-09-10T16:57:49.914Z,0.82
2022-09-10T17:00:37.249Z,3.05
2022-09-10T17:03:23.833Z,1.90
2022-09-10T17:06:18.812Z,2.25
2022-09-10T17:09:04.779Z,2.33
2022-09-10T17:11:52.035Z,1.73
2022-09-10T17:14:40.774Z,5.95
2022-09-10T17:17:27.799Z,3.60
2022-09-10T17:20:15.236Z,2.10
2022-09-10T17:23:01.807Z,2.28
2022-09-10T17:25:48.320Z,3.55
2022-09-10T17:28:36.270Z,2.55
2022-09-10T17:31:23.391Z,3.65
2022-09-10T17:34:13.345Z,2.55
2022-09-10T17:37:00.282Z,2.67
2022-09-10T17:39:47.700Z,1.55
2022-09-10T17:42:33.934Z,0.80
2022-09-10T17:45:21.280Z,1.23
2022-09-10T17:48:07.381Z,1.45
2022-09-10T17:50:53.682Z,0.75
2022-09-10T17:53:40.650Z,0.47
2022-09-10T17:56:27.151Z,2.25
2022-09-10T17:59:14.351Z,0.90
2022-09-10T18:02:01.728Z,2.37
2022-09-10T18:04:51.264Z,1.58
2022-09-10T18:07:37.598Z,1.70
2022-09-10T18:10:24.014Z,1.33
2022-09-10T18:13:10.927Z,3.47
2022-09-10T18:15:57.039Z,1.58
2022-09-10T18:18:47.596Z,0.60
2022-09-10T18:24:24.522Z,0.80
2022-09-10T18:27:11.112Z,2.30
2022-09-10T18:29:57.819Z,2.72
2022-09-10T18:32:44.752Z,2.85
2022-09-10T18:35:30.988Z,2.87
2022-09-10T18:38:17.468Z,2.53
2022-09-10T18:41:04.325Z,2.75
2022-09-10T18:43:52.704Z,3.95
2022-09-10T18:46:39.029Z,1.98
2022-09-10T18:49:26.500Z,1.40
2022-09-10T18:52:13.720Z,1.95
2022-09-10T18:54:59.956Z,2.30
2022-09-10T18:57:45.904Z,2.15
2022-09-10T19:00:33.425Z,3.92
2022-09-10T19:03:19.601Z,2.53
2022-09-10T19:06:08.306Z,2.97
2022-09-10T19:08:57.463Z,5.10
2022-09-10T19:11:45.514Z,1.55
2022-09-10T19:14:32.692Z,2.53
2022-09-10T19:17:19.122Z,2.95
2022-09-10T19:20:05.571Z,3.83
2022-09-10T19:22:51.710Z,2.60
2022-09-10T19:25:37.788Z,1.52
2022-09-10T19:28:24.330Z,2.45
2022-09-10T19:31:12.265Z,3.28
2022-09-10T19:34:01.978Z,2.92
2022-09-10T19:36:48.246Z,2.28
2022-09-10T19:39:35.125Z,4.22
2022-09-10T19:42:21.295Z,3.37
2022-09-10T19:45:10.366Z,2.67
2022-09-10T19:47:59.299Z,2.33
2022-09-10T19:50:47.338Z,1.98
2022-09-10T19:53:34.279Z,2.08
2022-09-10T19:56:23.290Z,5.12
2022-09-10T19:59:09.868Z,4.35
2022-09-10T20:01:56.513Z,3.35
2022-09-10T20:04:42.827Z,6.25
2022-09-10T20:07:31.176Z,3.08
2022-09-10T20:10:17.729Z,2.37
2022-09-10T20:13:03.501Z,2.00
2022-09-10T20:15:49.740Z,2.45
2022-09-10T20:18:36.733Z,4.60
2022-09-10T20:21:30.993Z,2.75
2022-09-10T20:24:17.545Z,3.87
2022-09-10T20:27:04.177Z,1.23
2022-09-10T20:29:49.990Z,1.90
2022-09-10T20:32:36.389Z,3.72
2022-09-10T20:35:22.788Z,1.95
2022-09-10T20:38:09.747Z,2.95
2022-09-10T20:40:56.144Z,2.10
2022-09-10T20:43:42.876Z,1.12
2022-09-10T20:46:31.312Z,1.80
2022-09-10T20:49:17.687Z,3.55
2022-09-10T20:52:04.935Z,2.12
2022-09-10T20:54:51.476Z,3.90
2022-09-10T20:57:38.842Z,3.47
2022-09-10T21:00:25.208Z,3.90
2022-09-10T21:03:14.029Z,1.12
2022-09-10T21:06:01.918Z,2.05
2022-09-10T21:08:48.310Z,4.12
2022-09-10T21:11:35.795Z,1.73
2022-09-10T21:14:22.104Z,2.12
2022-09-10T21:17:08.977Z,2.85
2022-09-10T21:19:55.417Z,4.32
2022-09-10T21:22:41.829Z,1.60
2022-09-10T21:25:28.203Z,2.83
2022-09-10T21:28:15.263Z,3.08
2022-09-10T21:31:05.574Z,2.15
2022-09-10T21:33:52.107Z,3.20
2022-09-10T21:36:39.391Z,1.25
2022-09-10T21:39:26.361Z,1.60
2022-09-10T21:42:12.659Z,1.52
2022-09-10T21:44:58.950Z,2.50
2022-09-10T21:47:45.087Z,4.15
2022-09-10T21:50:31.363Z,3.33
2022-09-10T21:53:17.159Z,1.98
2022-09-10T21:56:04.555Z,2.67
2022-09-10T21:58:51.004Z,1.45
2022-09-10T22:01:37.752Z,3.15
2022-09-10T22:04:24.063Z,4.18
2022-09-10T22:07:10.353Z,2.65
2022-09-10T22:09:56.861Z,2.45
2022-09-10T22:12:43.518Z,2.55
2022-09-10T22:15:30.161Z,2.85
2022-09-10T22:18:16.477Z,2.03
2022-09-10T22:21:02.979Z,1.05
2022-09-10T22:23:51.449Z,3.28
2022-09-10T22:26:44.825Z,3.62
2022-09-10T22:29:30.944Z,3.03
2022-09-10T22:32:17.273Z,3.00
2022-09-10T22:35:04.051Z,2.03
2022-09-10T22:37:54.011Z,1.58
2022-09-10T22:40:39.986Z,2.00
2022-09-10T22:43:26.156Z,3.35
2022-09-10T22:46:12.807Z,1.80
2022-09-10T22:48:59.546Z,1.50
2022-09-10T22:51:45.866Z,1.60
2022-09-10T22:54:32.397Z,1.87
2022-09-10T22:57:18.395Z,4.10
2022-09-10T23:00:05.104Z,1.55
2022-09-10T23:02:51.055Z,1.10
2022-09-10T23:05:37.541Z,2.70
2022-09-10T23:08:25.073Z,2.25
2022-09-10T23:11:15.248Z,2.65
2022-09-10T23:14:06.941Z,1.08
2022-09-10T23:19:38.829Z,0.50
2022-09-10T23:22:25.245Z,6.57
2022-09-10T23:25:11.134Z,0.70
2022-09-10T23:27:57.317Z,3.30
2022-09-10T23:30:45.609Z,2.58
2022-09-10T23:33:32.323Z,2.05
2022-09-10T23:36:18.602Z,2.22
2022-09-10T23:39:08.414Z,1.05
2022-09-10T23:41:56.792Z,3.60
2022-09-10T23:44:43.208Z,2.45
2022-09-10T23:47:29.455Z,2.28
2022-09-10T23:50:16.857Z,3.42
2022-09-10T23:53:03.202Z,1.35
2022-09-10T23:55:49.639Z,1.10
2022-09-10T23:58:35.496Z,2.78
